createdAt,value
2023-01-29T00:02:46.617Z,37.30
2023-01-29T00:05:51.196Z,34.43
2023-01-29T00:08:54.525Z,39.60
2023-01-29T00:11:57.718Z,36.67
2023-01-29T00:15:00.899Z,29.30
2023-01-29T00:18:04.162Z,34.93
2023-01-29T00:21:11.708Z,35.93
2023-01-29T00:24:14.914Z,30.90
2023-01-29T00:27:18.193Z,32.20
2023-01-29T00:30:21.473Z,35.10
2023-01-29T00:33:24.676Z,32.30
2023-01-29T00:36:29.540Z,37.20
2023-01-29T00:39:47.428Z,34.13
2023-01-29T00:43:08.793Z,38.20
2023-01-29T00:46:12.422Z,36.30
2023-01-29T00:49:15.633Z,38.27
2023-01-29T00:52:25.771Z,37.77
2023-01-29T00:55:29.038Z,32.43
2023-01-29T00:58:34.565Z,33.53
2023-01-29T01:01:55.046Z,34.17
2023-01-29T01:04:58.542Z,32.70
2023-01-29T01:08:03.136Z,35.60
2023-01-29T01:11:06.570Z,33.50
2023-01-29T01:14:10.120Z,31.67
2023-01-29T01:17:13.267Z,31.47
2023-01-29T01:20:17.361Z,35.97
2023-01-29T01:23:22.157Z,32.00
2023-01-29T01:26:25.431Z,38.40
2023-01-29T01:29:28.753Z,30.60
2023-01-29T01:32:31.842Z,32.80
2023-01-29T01:35:35.105Z,33.73
2023-01-29T01:38:44.683Z,33.60
2023-01-29T01:41:48.052Z,31.80
2023-01-29T01:44:57.187Z,34.03
2023-01-29T01:48:05.219Z,34.27
2023-01-29T01:51:08.369Z,32.77
2023-01-29T01:54:16.372Z,33.97
2023-01-29T01:57:25.960Z,35.53
2023-01-29T02:00:29.326Z,33.60
2023-01-29T02:03:51.943Z,32.23
2023-01-29T02:07:14.485Z,29.50
2023-01-29T02:10:20.701Z,32.13
2023-01-29T02:13:24.782Z,31.70
2023-01-29T02:16:28.020Z,35.93
2023-01-29T02:19:48.198Z,30.93
2023-01-29T02:23:17.105Z,34.13
2023-01-29T02:26:33.843Z,28.97
2023-01-29T02:29:48.890Z,26.60
2023-01-29T02:33:07.596Z,31.40
2023-01-29T02:36:20.606Z,29.10
2023-01-29T02:39:39.649Z,33.93
2023-01-29T02:42:50.154Z,33.83
2023-01-29T02:46:07.311Z,26.03
2023-01-29T02:49:18.284Z,26.17
2023-01-29T02:52:24.591Z,34.87
2023-01-29T02:55:34.484Z,31.30
2023-01-29T02:58:43.041Z,28.53
2023-01-29T03:01:49.874Z,34.13
2023-01-29T03:05:01.222Z,34.00
2023-01-29T03:08:10.764Z,32.50
2023-01-29T03:11:15.859Z,30.63
2023-01-29T03:14:25.560Z,31.27
2023-01-29T03:17:38.412Z,31.10
2023-01-29T03:20:48.145Z,35.27
2023-01-29T03:24:08.817Z,32.47
2023-01-29T03:27:33.215Z,33.37
2023-01-29T03:30:58.563Z,28.70
2023-01-29T03:34:09.003Z,29.10
2023-01-29T03:37:18.921Z,29.97
2023-01-29T03:40:22.203Z,31.83
2023-01-29T03:43:35.936Z,34.37
2023-01-29T03:46:45.867Z,33.50
2023-01-29T03:49:58.989Z,27.90
2023-01-29T03:53:09.488Z,29.50
2023-01-29T03:56:23.787Z,27.97
2023-01-29T03:59:35.350Z,32.43
2023-01-29T04:02:44.719Z,32.03
2023-01-29T04:05:58.461Z,27.97
2023-01-29T04:09:05.504Z,34.27
2023-01-29T04:12:10.961Z,35.07
2023-01-29T04:15:16.766Z,33.40
2023-01-29T04:18:19.959Z,31.90
2023-01-29T04:21:26.167Z,35.10
2023-01-29T04:24:29.515Z,32.00
2023-01-29T04:27:42.948Z,28.83
2023-01-29T04:30:54.054Z,34.80
2023-01-29T04:34:07.329Z,33.40
2023-01-29T04:37:17.205Z,37.40
2023-01-29T04:40:26.681Z,36.60
2023-01-29T04:43:36.660Z,31.50
2023-01-29T04:46:49.611Z,35.07
2023-01-29T04:50:01.231Z,34.17
2023-01-29T04:53:12.073Z,35.47
2023-01-29T04:56:22.197Z,33.70
2023-01-29T04:59:30.380Z,31.10
2023-01-29T05:02:38.387Z,29.60
2023-01-29T05:05:43.732Z,28.93
2023-01-29T05:08:50.263Z,34.33
2023-01-29T05:11:54.259Z,31.93
2023-01-29T05:15:02.172Z,25.97
2023-01-29T05:18:08.907Z,33.53
2023-01-29T05:21:12.102Z,32.63
2023-01-29T05:24:19.449Z,32.93
2023-01-29T05:27:45.395Z,31.43
2023-01-29T05:30:50.505Z,31.10
2023-01-29T05:33:53.672Z,31.23
2023-01-29T05:36:57.005Z,30.50
2023-01-29T05:40:01.560Z,28.73
2023-01-29T05:43:05.409Z,28.53
2023-01-29T05:46:09.027Z,31.87
2023-01-29T05:49:12.201Z,30.23
2023-01-29T05:52:15.309Z,31.83
2023-01-29T05:55:19.993Z,33.03
2023-01-29T05:58:23.168Z,25.13
2023-01-29T06:01:27.718Z,31.53
2023-01-29T06:04:30.876Z,33.33
2023-01-29T06:07:34.713Z,32.33
2023-01-29T06:10:39.250Z,34.10
2023-01-29T06:13:42.407Z,32.60
2023-01-29T06:16:45.534Z,27.17
2023-01-29T06:19:48.680Z,35.60
2023-01-29T06:22:51.850Z,34.90
2023-01-29T06:26:00.923Z,31.27
2023-01-29T06:29:04.077Z,31.37
2023-01-29T06:32:07.287Z,34.20
2023-01-29T06:35:11.220Z,30.20
2023-01-29T06:38:14.398Z,36.60
2023-01-29T06:41:22.818Z,32.10
2023-01-29T06:44:26.023Z,31.93
2023-01-29T06:47:29.604Z,27.40
2023-01-29T06:50:32.767Z,33.20
2023-01-29T06:53:37.263Z,26.57
2023-01-29T06:56:41.759Z,32.27
2023-01-29T06:59:44.918Z,29.60
2023-01-29T07:02:50.482Z,32.83
2023-01-29T07:05:54.394Z,33.67
2023-01-29T07:08:57.835Z,37.33
2023-01-29T07:12:02.381Z,32.53
2023-01-29T07:15:06.320Z,31.83
2023-01-29T07:18:13.012Z,30.90
2023-01-29T07:21:16.307Z,27.07
2023-01-29T07:24:20.010Z,31.93
2023-01-29T07:27:24.548Z,32.90
2023-01-29T07:30:27.714Z,29.43
2023-01-29T07:33:30.927Z,30.70
2023-01-29T07:36:34.131Z,29.60
2023-01-29T07:39:37.282Z,33.70
2023-01-29T07:42:44.088Z,31.60
2023-01-29T07:45:47.305Z,34.43
2023-01-29T07:48:50.451Z,35.43
2023-01-29T07:51:53.684Z,28.43
2023-01-29T07:54:56.948Z,29.40
2023-01-29T07:58:02.742Z,32.07
2023-01-29T08:01:08.555Z,27.37
2023-01-29T08:04:11.716Z,29.10
2023-01-29T08:07:15.067Z,31.33
2023-01-29T08:10:19.034Z,28.53
2023-01-29T08:13:23.865Z,27.30
2023-01-29T08:16:27.009Z,30.20
2023-01-29T08:19:30.197Z,33.13
2023-01-29T08:22:33.375Z,33.83
2023-01-29T08:25:37.713Z,28.50
2023-01-29T08:28:42.325Z,28.57
2023-01-29T08:31:45.471Z,30.30
2023-01-29T08:34:48.764Z,26.53
2023-01-29T08:37:55.461Z,30.10
2023-01-29T08:40:58.646Z,27.17
2023-01-29T08:44:04.493Z,30.30
2023-01-29T08:47:07.955Z,26.93
2023-01-29T08:50:12.360Z,28.13
2023-01-29T08:53:15.515Z,25.80
2023-01-29T08:56:18.649Z,25.07
2023-01-29T08:59:23.442Z,25.90
2023-01-29T09:02:26.649Z,19.13
2023-01-29T09:05:29.923Z,21.97
2023-01-29T09:08:33.052Z,21.20
2023-01-29T09:11:36.202Z,21.63
2023-01-29T09:14:40.697Z,18.20
2023-01-29T09:17:44.208Z,18.20
2023-01-29T09:20:47.320Z,15.33
2023-01-29T09:23:50.422Z,15.83
2023-01-29T09:26:53.543Z,16.80
2023-01-29T09:29:58.061Z,14.60
2023-01-29T09:33:01.891Z,15.80
2023-01-29T09:36:05.808Z,14.33
2023-01-29T09:39:09.066Z,13.07
2023-01-29T09:42:19.836Z,11.67
2023-01-29T09:45:27.742Z,13.93
2023-01-29T09:48:35.477Z,12.57
2023-01-29T09:51:43.010Z,10.23
2023-01-29T09:54:55.935Z,13.77
2023-01-29T09:58:02.551Z,12.67
2023-01-29T10:01:15.213Z,13.00
2023-01-29T10:04:34.765Z,13.57
2023-01-29T10:07:59.254Z,12.53
2023-01-29T10:11:10.275Z,12.53
2023-01-29T10:14:21.054Z,11.73
2023-01-29T10:17:46.209Z,10.33
2023-01-29T10:20:59.629Z,9.80
2023-01-29T10:24:13.516Z,9.30
2023-01-29T10:27:18.594Z,43.80
2023-01-29T10:30:32.061Z,30.17
2023-01-29T10:34:03.360Z,14.57
2023-01-29T10:37:16.771Z,35.23
2023-01-29T10:40:23.283Z,14.57
2023-01-29T10:43:35.230Z,11.43
2023-01-29T10:46:57.452Z,14.63
2023-01-29T10:50:26.723Z,14.60
2023-01-29T10:53:43.057Z,13.93
2023-01-29T10:56:55.850Z,14.30
2023-01-29T11:00:10.151Z,13.33
2023-01-29T11:03:26.916Z,13.23
2023-01-29T11:06:34.593Z,13.00
2023-01-29T11:09:43.742Z,11.37
2023-01-29T11:12:47.570Z,12.60
2023-01-29T11:15:54.062Z,14.87
2023-01-29T11:18:59.530Z,23.23
2023-01-29T11:22:04.536Z,19.63
2023-01-29T11:25:17.681Z,24.93
2023-01-29T11:28:37.275Z,14.00
2023-01-29T11:31:41.547Z,30.30
2023-01-29T11:35:01.888Z,74.73
2023-01-29T11:38:19.560Z,66.43
2023-01-29T11:41:25.442Z,101.27
2023-01-29T11:44:32.898Z,92.97
2023-01-29T11:47:36.633Z,28.17
2023-01-29T11:50:39.994Z,33.43
2023-01-29T11:53:47.249Z,21.20
2023-01-29T11:56:51.876Z,25.70
2023-01-29T11:59:56.921Z,28.07
2023-01-29T12:03:08.168Z,28.57
2023-01-29T12:06:19.848Z,25.23
2023-01-29T12:09:27.534Z,22.57
2023-01-29T12:12:34.235Z,46.73
2023-01-29T12:15:38.417Z,25.17
2023-01-29T12:18:44.650Z,24.67
2023-01-29T12:21:52.116Z,40.93
2023-01-29T12:25:02.551Z,37.40
2023-01-29T12:28:11.636Z,18.30
2023-01-29T12:31:27.100Z,19.60
2023-01-29T12:34:42.131Z,16.40
2023-01-29T12:37:53.684Z,16.60
2023-01-29T12:41:01.133Z,18.37
2023-01-29T12:44:13.648Z,21.50
2023-01-29T12:47:21.862Z,13.20
2023-01-29T12:50:29.956Z,16.60
2023-01-29T12:53:38.354Z,15.57
2023-01-29T12:56:47.659Z,13.07
2023-01-29T12:59:56.418Z,14.83
2023-01-29T13:03:05.588Z,15.97
2023-01-29T13:06:11.686Z,14.97
2023-01-29T13:09:18.659Z,16.10
2023-01-29T13:12:25.422Z,18.83
2023-01-29T13:15:35.670Z,14.00
2023-01-29T13:18:44.705Z,15.57
2023-01-29T13:21:49.077Z,15.67
2023-01-29T13:25:04.280Z,16.97
2023-01-29T13:28:18.569Z,43.27
2023-01-29T13:31:32.161Z,28.27
2023-01-29T13:34:39.145Z,15.27
2023-01-29T13:37:48.302Z,13.30
2023-01-29T13:40:52.325Z,20.33
2023-01-29T13:43:57.804Z,14.93
2023-01-29T13:47:03.315Z,17.23
2023-01-29T13:50:09.904Z,18.60
2023-01-29T13:53:24.137Z,16.47
2023-01-29T13:56:48.991Z,15.07
2023-01-29T13:59:56.438Z,15.80
2023-01-29T14:04:04.137Z,16.40
2023-01-29T14:07:51.643Z,53.67
2023-01-29T14:11:37.670Z,20.67
2023-01-29T14:15:04.600Z,15.90
2023-01-29T14:18:26.351Z,15.30
2023-01-29T14:21:33.245Z,15.07
2023-01-29T14:24:38.794Z,17.40
2023-01-29T14:27:47.849Z,16.43
2023-01-29T14:30:52.585Z,17.30
2023-01-29T14:34:03.519Z,18.20
2023-01-29T14:37:23.081Z,14.13
2023-01-29T14:40:31.169Z,18.00
2023-01-29T14:43:35.129Z,14.37
2023-01-29T14:46:46.208Z,13.80
2023-01-29T14:49:55.454Z,15.87
2023-01-29T14:53:05.023Z,13.20
2023-01-29T14:56:20.062Z,16.83
2023-01-29T14:59:29.248Z,19.50
2023-01-29T15:02:40.251Z,13.40
2023-01-29T15:05:44.548Z,18.53
2023-01-29T15:08:53.931Z,17.97
2023-01-29T15:12:07.670Z,14.53
2023-01-29T15:15:19.428Z,20.50
2023-01-29T15:18:32.565Z,20.60
2023-01-29T15:21:35.737Z,15.57
2023-01-29T15:24:40.665Z,18.87
2023-01-29T15:27:48.748Z,17.10
2023-01-29T15:30:55.942Z,16.40
2023-01-29T15:34:03.090Z,18.50
2023-01-29T15:37:07.844Z,16.70
2023-01-29T15:40:18.497Z,16.40
2023-01-29T15:43:29.944Z,17.60
2023-01-29T15:46:36.275Z,14.10
2023-01-29T15:49:42.224Z,17.10
2023-01-29T15:52:51.871Z,24.37
2023-01-29T15:55:58.297Z,24.70
2023-01-29T15:59:09.744Z,26.43
2023-01-29T16:02:40.058Z,22.47
2023-01-29T16:05:44.196Z,17.80
2023-01-29T16:08:54.211Z,16.30
2023-01-29T16:12:00.184Z,26.93
2023-01-29T16:15:07.793Z,18.27
2023-01-29T16:18:23.194Z,19.53
2023-01-29T16:21:34.583Z,17.23
2023-01-29T16:24:39.413Z,17.07
2023-01-29T16:27:46.629Z,18.70
2023-01-29T16:31:00.568Z,18.03
2023-01-29T16:34:11.742Z,16.63
2023-01-29T16:37:24.302Z,18.97
2023-01-29T16:40:34.163Z,17.97
2023-01-29T16:43:52.593Z,15.90
2023-01-29T16:46:58.997Z,15.57
2023-01-29T16:50:06.315Z,14.93
2023-01-29T16:53:15.821Z,20.23
2023-01-29T16:56:24.643Z,23.03
2023-01-29T16:59:35.155Z,18.63
2023-01-29T17:02:42.419Z,23.33
2023-01-29T17:05:47.835Z,19.20
2023-01-29T17:08:52.934Z,17.87
2023-01-29T17:12:00.607Z,16.50
2023-01-29T17:15:08.197Z,18.63
2023-01-29T17:18:20.289Z,20.20
2023-01-29T17:21:25.591Z,18.07
2023-01-29T17:24:30.395Z,14.37
2023-01-29T17:27:34.829Z,14.30
2023-01-29T17:30:40.769Z,18.30
2023-01-29T17:33:47.332Z,15.80
2023-01-29T17:36:51.646Z,17.67
2023-01-29T17:39:57.855Z,29.13
2023-01-29T17:43:02.264Z,18.57
2023-01-29T17:46:06.700Z,15.67
2023-01-29T17:49:25.301Z,20.00
2023-01-29T17:52:30.219Z,19.20
2023-01-29T17:55:38.138Z,22.17
2023-01-29T17:58:42.910Z,24.07
2023-01-29T18:01:48.457Z,20.40
2023-01-29T18:04:55.568Z,16.77
2023-01-29T18:08:00.392Z,16.43
2023-01-29T18:11:04.726Z,17.07
2023-01-29T18:14:14.081Z,15.47
2023-01-29T18:17:23.249Z,18.33
2023-01-29T18:20:30.288Z,18.57
2023-01-29T18:23:34.151Z,15.67
2023-01-29T18:26:37.990Z,16.23
2023-01-29T18:29:42.334Z,16.97
2023-01-29T18:32:48.117Z,17.83
2023-01-29T18:35:55.640Z,18.53
2023-01-29T18:39:00.551Z,12.53
2023-01-29T18:42:04.716Z,15.43
2023-01-29T18:45:10.545Z,13.50
2023-01-29T18:48:15.574Z,15.20
2023-01-29T18:51:21.005Z,17.37
2023-01-29T18:54:27.405Z,17.70
2023-01-29T18:58:26.189Z,16.50
2023-01-29T19:01:10.343Z,21.37
2023-01-29T19:04:15.107Z,16.83
2023-01-29T19:07:22.699Z,17.20
2023-01-29T19:10:26.535Z,16.60
2023-01-29T19:13:31.863Z,18.23
2023-01-29T19:16:37.185Z,17.40
2023-01-29T19:19:41.776Z,20.50
2023-01-29T19:22:49.364Z,15.77
2023-01-29T19:25:53.509Z,16.63
2023-01-29T19:28:58.586Z,16.30
2023-01-29T19:32:02.940Z,15.60
2023-01-29T19:35:09.857Z,16.83
2023-01-29T19:38:21.530Z,16.77
2023-01-29T19:41:26.938Z,15.90
2023-01-29T19:44:31.597Z,15.27
2023-01-29T19:47:40.290Z,16.80
2023-01-29T19:50:44.660Z,18.27
2023-01-29T19:53:50.903Z,16.60
2023-01-29T19:56:55.179Z,16.77
2023-01-29T19:59:59.825Z,17.20
2023-01-29T20:03:04.704Z,21.37
2023-01-29T20:06:11.883Z,19.57
2023-01-29T20:09:18.205Z,22.13
2023-01-29T20:12:23.322Z,20.30
2023-01-29T20:15:28.217Z,20.30
2023-01-29T20:18:33.471Z,19.63
2023-01-29T20:21:40.002Z,22.60
2023-01-29T20:24:49.690Z,17.30
2023-01-29T20:27:53.914Z,20.03
2023-01-29T20:31:01.669Z,15.63
2023-01-29T20:34:07.281Z,17.13
2023-01-29T20:37:12.982Z,20.57
2023-01-29T20:40:19.986Z,19.07
2023-01-29T20:43:24.189Z,18.37
2023-01-29T20:46:31.028Z,18.43
2023-01-29T20:49:35.549Z,16.77
2023-01-29T20:52:43.440Z,15.43
2023-01-29T20:55:50.526Z,17.07
2023-01-29T20:58:54.860Z,16.73
2023-01-29T21:01:59.356Z,17.17
2023-01-29T21:05:06.957Z,20.37
2023-01-29T21:08:12.580Z,15.70
2023-01-29T21:11:18.574Z,17.53
2023-01-29T21:14:23.391Z,17.97
2023-01-29T21:17:28.283Z,20.17
2023-01-29T21:20:33.415Z,20.30
2023-01-29T21:23:38.404Z,17.93
2023-01-29T21:26:44.279Z,19.20
2023-01-29T21:29:51.177Z,15.43
2023-01-29T21:32:55.827Z,20.50
2023-01-29T21:36:00.316Z,16.97
2023-01-29T21:39:16.732Z,20.53
2023-01-29T21:42:38.931Z,18.90
2023-01-29T21:45:43.244Z,22.70
2023-01-29T21:48:46.731Z,18.90
2023-01-29T21:51:50.364Z,18.10
2023-01-29T21:54:54.951Z,18.37
2023-01-29T21:58:00.716Z,18.80
2023-01-29T22:01:34.707Z,20.43
2023-01-29T22:04:27.620Z,18.87
2023-01-29T22:07:31.303Z,19.53
2023-01-29T22:10:36.512Z,20.40
2023-01-29T22:13:41.250Z,24.10
2023-01-29T22:16:44.737Z,22.30
2023-01-29T22:19:48.179Z,20.23
2023-01-29T22:22:51.346Z,22.20
2023-01-29T22:25:54.805Z,19.00
2023-01-29T22:28:59.382Z,21.93
2023-01-29T22:32:02.624Z,22.60
2023-01-29T22:35:06.612Z,22.80
2023-01-29T22:38:09.848Z,23.13
2023-01-29T22:41:13.567Z,24.30
2023-01-29T22:44:18.073Z,20.47
2023-01-29T22:47:21.303Z,22.53
2023-01-29T22:50:24.507Z,27.13
2023-01-29T22:53:27.698Z,23.73
2023-01-29T22:56:31.230Z,25.80
2023-01-29T22:59:35.838Z,24.57
2023-01-29T23:02:39.042Z,23.17
2023-01-29T23:05:42.219Z,24.30
2023-01-29T23:08:45.610Z,19.80
2023-01-29T23:11:48.945Z,22.33
2023-01-29T23:14:53.492Z,19.30
2023-01-29T23:17:56.689Z,23.00
2023-01-29T23:20:59.859Z,20.87
2023-01-29T23:24:03.124Z,28.20
2023-01-29T23:27:18.208Z,22.73
2023-01-29T23:30:22.867Z,24.13
2023-01-29T23:33:26.279Z,27.73
2023-01-29T23:36:29.599Z,23.90
2023-01-29T23:39:33.025Z,18.33
2023-01-29T23:42:36.172Z,25.03
2023-01-29T23:45:42.183Z,21.43
2023-01-29T23:48:45.437Z,22.10
2023-01-29T23:51:49.251Z,23.40
2023-01-29T23:54:52.516Z,24.50
2023-01-29T23:57:55.843Z,21.67
